Currituck — AEFR — position and weather

sailwx.info

Track history (hours):
 
Tides and Currents Weather Stations Pressure Air Temp Water Temp Dewpoint Dewpoint Depression Visibility Wind Speed Wind Dir Waves Ship Positions

Currituck

Last reported at 2017-Mar-26 00:26 UTC. Time now 2017-Mar-26 09:10 UTC.
Position N 27°26' W 082°41'.

Length 45 m; draft 2 m.

Type: Dredging. MMSI: 369970446.

Date/timePositionNaut miles runAvg speedWind from/ knotsBaromVisibWave heightAir tempDewpointWater temp
2017-Mar-26 00:26N 27°26' W 082°41'38 1.3
2017-Mar-24 19:05N 26°52' W 082°21'5 8.9
2017-Mar-24 18:33N 26°48' W 082°19'9 8.8
2017-Mar-24 17:31N 26°39' W 082°19'8 8.5
2017-Mar-24 16:33N 26°32' W 082°14'9 8.6
2017-Mar-24 15:33N 26°25' W 082°08'8 8.5
2017-Mar-24 14:33N 26°24' W 081°59'7 6.5
2017-Mar-24 13:33N 26°31' W 082°01'8 7.7
2017-Mar-24 12:33N 26°35' W 081°54'8 7.5
2017-Mar-24 11:33N 26°42' W 081°49'7 6.5
2017-Mar-24 10:32N 26°43' W 081°42'1 0.1
2017-Mar-24 02:17N 26°43' W 081°41'  
Track history (hours):
 
Tides and Currents Weather Stations Pressure Air Temp Water Temp Dewpoint Dewpoint Depression Visibility Wind Speed Wind Dir Waves Ship Positions

Currituck

Last reported at 2017-Mar-26 00:26 UTC. Time now 2017-Mar-26 09:10 UTC.
Position N 27°26' W 082°41'.

Length 45 m; draft 2 m.

Type: Dredging. MMSI: 369970446.

Date/timePositionNaut miles runAvg speedWind from/ knotsBaromVisibWave heightAir tempDewpointWater temp
2017-Mar-26 00:26N 27°26' W 082°41'38 1.3
2017-Mar-24 19:05N 26°52' W 082°21'5 8.9
2017-Mar-24 18:33N 26°48' W 082°19'9 8.8
2017-Mar-24 17:31N 26°39' W 082°19'8 8.5
2017-Mar-24 16:33N 26°32' W 082°14'9 8.6
2017-Mar-24 15:33N 26°25' W 082°08'8 8.5
2017-Mar-24 14:33N 26°24' W 081°59'7 6.5
2017-Mar-24 13:33N 26°31' W 082°01'8 7.7
2017-Mar-24 12:33N 26°35' W 081°54'8 7.5
2017-Mar-24 11:33N 26°42' W 081°49'7 6.5
2017-Mar-24 10:32N 26°43' W 081°42'1 0.1
2017-Mar-24 02:17N 26°43' W 081°41'  

Dump ship's entire track history